Time;durP1;ratioP1;P1;durP2;ratioP2;P2;SDS_P1;SDS_P2;PMS_P1;PMS_P2;Temp;Humidity;BMP_temperature;BMP_pressure;BME280_temperature;BME280_humidity;BME280_pressure;Samples;Min_cycle;Max_cycle;Signal;HPM_P1;HPM_P2
2021/03/10 20:20:24;;;;;;;9.07;3.78;;;11.20;43.60;;;;;;10077808;27;20556;-65
2021/03/10 20:25:16;;;;;;;7.95;4.93;;;11.10;43.70;;;;;;10053819;28;20170;-68
2021/03/10 20:30:10;;;;;;;8.70;4.85;;;11.20;43.70;;;;;;10023143;28;20060;-66
2021/03/10 20:35:01;;;;;;;11.70;5.07;;;11.10;43.80;;;;;;10061156;28;20542;-66
2021/03/10 20:39:51;;;;;;;7.63;4.13;;;11.10;43.80;;;;;;10060052;28;20032;-68
2021/03/10 20:44:42;;;;;;;7.38;4.75;;;11.20;43.80;;;;;;10061207;28;20409;-66
2021/03/10 20:49:34;;;;;;;6.07;4.38;;;11.10;43.80;;;;;;10030436;28;20511;-68
2021/03/10 20:54:25;;;;;;;7.95;4.40;;;11.10;44.00;;;;;;10058947;28;20124;-69
2021/03/10 20:59:16;;;;;;;7.28;4.07;;;11.00;44.10;;;;;;10055358;28;20063;-68
2021/03/10 21:04:07;;;;;;;8.88;4.63;;;11.10;44.30;;;;;;10048108;28;20052;-65
2021/03/10 21:08:57;;;;;;;7.05;4.25;;;11.00;44.20;;;;;;10080754;28;20053;-66
2021/03/10 21:13:49;;;;;;;8.77;5.15;;;10.90;44.30;;;;;;10068544;28;20029;-66
2021/03/10 21:18:40;;;;;;;7.63;4.60;;;10.90;45.00;;;;;;10066313;28;20056;-67
2021/03/10 21:23:31;;;;;;;6.35;3.92;;;10.90;44.30;;;;;;10082818;28;20495;-69
2021/03/10 21:28:25;;;;;;;10.52;4.40;;;10.80;44.60;;;;;;10074077;28;20052;-70
2021/03/10 21:33:16;;;;;;;8.60;4.30;;;10.80;44.60;;;;;;10093191;28;20094;-70
2021/03/10 21:38:07;;;;;;;10.57;4.97;;;10.80;44.60;;;;;;10092888;28;20041;-70
2021/03/10 21:42:58;;;;;;;10.52;5.65;;;10.80;44.80;;;;;;10089030;28;20121;-70
2021/03/10 21:47:49;;;;;;;8.77;4.75;;;10.80;44.80;;;;;;10081918;28;20411;-69
2021/03/10 21:52:40;;;;;;;9.90;4.28;;;10.80;44.70;;;;;;10078903;28;20091;-68
2021/03/10 21:57:31;;;;;;;8.43;4.50;;;10.80;44.80;;;;;;10091715;28;20033;-67
2021/03/10 22:02:22;;;;;;;6.53;3.97;;;10.80;44.90;;;;;;10089769;28;20029;-68
2021/03/10 22:07:13;;;;;;;9.25;3.95;;;10.80;45.00;;;;;;10084896;28;20037;-69
2021/03/10 22:12:05;;;;;;;9.27;3.33;;;10.80;45.00;;;;;;10085017;28;20423;-68
2021/03/10 22:16:55;;;;;;;8.98;4.13;;;10.80;45.10;;;;;;10085031;28;20032;-68
2021/03/10 22:21:46;;;;;;;7.63;4.43;;;10.70;45.10;;;;;;10090337;28;20714;-68
2021/03/10 22:26:37;;;;;;;8.00;4.28;;;10.70;45.20;;;;;;10085508;28;20067;-69
2021/03/10 22:31:28;;;;;;;5.90;3.85;;;10.70;45.30;;;;;;10086845;28;20045;-67
2021/03/10 22:36:19;;;;;;;7.68;3.83;;;10.70;45.30;;;;;;10086576;28;20110;-69
2021/03/10 22:41:09;;;;;;;9.02;4.90;;;10.70;45.40;;;;;;10060882;28;20029;-68
2021/03/10 22:46:00;;;;;;;9.18;4.40;;;10.60;45.40;;;;;;10086986;28;20157;-68
2021/03/10 22:50:51;;;;;;;7.32;3.75;;;10.70;45.70;;;;;;10069634;28;20055;-68
2021/03/10 22:55:42;;;;;;;7.50;4.60;;;10.60;45.50;;;;;;10085775;28;20041;-68
2021/03/10 23:00:40;;;;;;;7.43;4.00;;;10.60;45.70;;;;;;10088941;28;20101;-68
2021/03/10 23:05:36;;;;;;;8.45;4.35;;;10.60;45.70;;;;;;10072010;28;20466;-69
2021/03/10 23:10:28;;;;;;;11.93;4.15;;;10.70;45.70;;;;;;10087282;28;20080;-69
2021/03/10 23:15:25;;;;;;;7.53;4.15;;;10.70;45.90;;;;;;10090543;28;20044;-72
2021/03/10 23:20:17;;;;;;;8.32;4.68;;;10.60;45.90;;;;;;10086169;28;20043;-69
2021/03/10 23:25:11;;;;;;;8.32;3.90;;;10.70;46.00;;;;;;10097159;28;20468;-69
2021/03/10 23:30:08;;;;;;;9.35;5.32;;;10.60;46.10;;;;;;10093262;28;20044;-68
2021/03/10 23:34:59;;;;;;;7.95;3.85;;;10.60;46.10;;;;;;10095479;28;20029;-67
2021/03/10 23:39:50;;;;;;;7.28;3.97;;;10.60;46.40;;;;;;10106206;28;20115;-67
2021/03/10 23:44:41;;;;;;;7.63;3.85;;;10.60;46.50;;;;;;10090356;28;20120;-68
2021/03/10 23:49:32;;;;;;;8.43;4.22;;;10.60;46.50;;;;;;10101184;28;20041;-69
2021/03/10 23:54:23;;;;;;;8.25;3.95;;;10.60;46.80;;;;;;10099166;28;20493;-68
2021/03/10 23:59:13;;;;;;;8.05;3.63;;;10.60;46.80;;;;;;10095203;28;20033;-68
